RYR20AX EPMO-LGAV
Flight info
| Callsign | RYR20AX |
|---|---|
| Flight time | N/A |
| Altitude | 37000 |
| Route | EVINA M66 BABKO DCT ULPUK DCT LAHOR DCT PARAK DCT IRGOR DCT IBISI DCT KRATO DCT MAKED DCT SIGFO UM749 ROPOX |
| Aircraft | B738/M-SDE2E3FGHIRWXY/LB1 |
Departure
| Time | 2026-04-24 16:19 |
|---|---|
| Airport | Warsaw Modlin Airport (EPMO) |
Arrival
| Time | N/A |
|---|---|
| Airport | Athens Eleftherios Venizelos International Airport (LGAV) |
| Time | Latitude | Longitude | Altitude | Speed | Heading |
|---|---|---|---|---|---|
| 2026-04-24 15:49 | 52.44721 | 20.65019 | 349 ft | 0 kts | 205° |
| 2026-04-24 16:11 | 52.44759 | 20.65030 | 354 ft | 4 kts | 147° |
| 2026-04-24 16:11 | 52.44767 | 20.65011 | 348 ft | 1 kts | 81° |
| 2026-04-24 16:13 | 52.44768 | 20.65020 | 354 ft | 4 kts | 81° |
| 2026-04-24 16:14 | 52.44782 | 20.65165 | 349 ft | 12 kts | 81° |
| 2026-04-24 16:14 | 52.44795 | 20.65308 | 352 ft | 13 kts | 81° |
| 2026-04-24 16:14 | 52.44829 | 20.65672 | 343 ft | 18 kts | 83° |
| 2026-04-24 16:15 | 52.44839 | 20.65806 | 353 ft | 18 kts | 79° |
| 2026-04-24 16:15 | 52.44886 | 20.66289 | 345 ft | 22 kts | 81° |
| 2026-04-24 16:16 | 52.44931 | 20.66777 | 341 ft | 21 kts | 81° |
| 2026-04-24 16:16 | 52.44953 | 20.66998 | 348 ft | 15 kts | 75° |
| 2026-04-24 16:17 | 52.45058 | 20.67065 | 344 ft | 6 kts | 351° |
| 2026-04-24 16:17 | 52.45139 | 20.67045 | 354 ft | 6 kts | 351° |
| 2026-04-24 16:18 | 52.45224 | 20.67007 | 351 ft | 7 kts | 341° |
| 2026-04-24 16:18 | 52.45278 | 20.66856 | 351 ft | 11 kts | 262° |
| 2026-04-24 16:18 | 52.45254 | 20.66595 | 352 ft | 52 kts | 261° |
| 2026-04-24 16:19 | 52.44999 | 20.63952 | 569 ft | 159 kts | 263° |
| 2026-04-24 16:19 | 52.44802 | 20.62124 | 1329 ft | 168 kts | 264° |
| 2026-04-24 16:20 | 52.44365 | 20.58329 | 2999 ft | 171 kts | 264° |
| 2026-04-24 16:20 | 52.42495 | 20.55793 | 3870 ft | 216 kts | 189° |
| 2026-04-24 16:20 | 52.40918 | 20.55489 | 4053 ft | 239 kts | 188° |
| 2026-04-24 16:21 | 52.37373 | 20.54855 | 4628 ft | 275 kts | 188° |
| 2026-04-24 16:21 | 52.35444 | 20.54504 | 5305 ft | 280 kts | 188° |
| 2026-04-24 16:21 | 52.33498 | 20.54146 | 6092 ft | 282 kts | 189° |
| 2026-04-24 16:22 | 52.31567 | 20.53785 | 6825 ft | 284 kts | 189° |
| 2026-04-24 16:22 | 52.27560 | 20.53020 | 8127 ft | 295 kts | 188° |
| 2026-04-24 16:22 | 52.25510 | 20.52624 | 8837 ft | 298 kts | 189° |
| 2026-04-24 16:23 | 52.23436 | 20.52223 | 9513 ft | 303 kts | 189° |
| 2026-04-24 16:23 | 52.21326 | 20.51813 | 10128 ft | 308 kts | 188° |
| 2026-04-24 16:23 | 52.19129 | 20.51385 | 10360 ft | 329 kts | 188° |
| 2026-04-24 16:24 | 52.14323 | 20.50445 | 10924 ft | 361 kts | 188° |
| 2026-04-24 16:24 | 52.11813 | 20.49959 | 11497 ft | 366 kts | 188° |
| 2026-04-24 16:24 | 52.09275 | 20.49469 | 12184 ft | 369 kts | 188° |
| 2026-04-24 16:24 | 52.06712 | 20.48973 | 12842 ft | 373 kts | 188° |
| 2026-04-24 16:25 | 52.04115 | 20.48471 | 13502 ft | 378 kts | 188° |
| 2026-04-24 16:25 | 52.01495 | 20.47963 | 14134 ft | 382 kts | 188° |
| 2026-04-24 16:25 | 51.98878 | 20.47457 | 14762 ft | 385 kts | 188° |
| 2026-04-24 16:26 | 51.93496 | 20.46419 | 15998 ft | 394 kts | 189° |
| 2026-04-24 16:26 | 51.90756 | 20.45890 | 16617 ft | 398 kts | 189° |
| 2026-04-24 16:26 | 51.85189 | 20.44819 | 17840 ft | 407 kts | 189° |
| 2026-04-24 16:27 | 51.82355 | 20.44275 | 18413 ft | 411 kts | 189° |
| 2026-04-24 16:27 | 51.79505 | 20.43728 | 18925 ft | 415 kts | 189° |
| 2026-04-24 16:27 | 51.76621 | 20.43176 | 19452 ft | 419 kts | 189° |
| 2026-04-24 16:27 | 51.73711 | 20.42620 | 19977 ft | 422 kts | 189° |
| 2026-04-24 16:28 | 51.70782 | 20.42060 | 20487 ft | 426 kts | 189° |
| 2026-04-24 16:28 | 51.67818 | 20.41495 | 20989 ft | 430 kts | 189° |
| 2026-04-24 16:28 | 51.61820 | 20.40353 | 21961 ft | 438 kts | 189° |
| 2026-04-24 16:29 | 51.58783 | 20.39776 | 22445 ft | 441 kts | 189° |
| 2026-04-24 16:29 | 51.55719 | 20.39195 | 22919 ft | 445 kts | 189° |
| 2026-04-24 16:29 | 51.49509 | 20.38019 | 23784 ft | 453 kts | 189° |
| 2026-04-24 16:30 | 51.43216 | 20.36831 | 24551 ft | 459 kts | 189° |
| 2026-04-24 16:30 | 51.40030 | 20.36220 | 24915 ft | 462 kts | 191° |
| 2026-04-24 16:30 | 51.36882 | 20.35181 | 25274 ft | 462 kts | 200° |
| 2026-04-24 16:31 | 51.33859 | 20.33638 | 25652 ft | 463 kts | 202° |
| 2026-04-24 16:31 | 51.30794 | 20.31989 | 26007 ft | 466 kts | 202° |
| 2026-04-24 16:31 | 51.27708 | 20.30318 | 26337 ft | 470 kts | 202° |
| 2026-04-24 16:31 | 51.24598 | 20.28653 | 26681 ft | 473 kts | 202° |
| 2026-04-24 16:32 | 51.22486 | 20.27537 | 26919 ft | 475 kts | 202° |
| 2026-04-24 16:32 | 51.18307 | 20.25357 | 27357 ft | 479 kts | 201° |
| 2026-04-24 16:32 | 51.15123 | 20.23712 | 27671 ft | 482 kts | 201° |
| 2026-04-24 16:32 | 51.11924 | 20.22066 | 27999 ft | 485 kts | 201° |
| 2026-04-24 16:33 | 51.08704 | 20.20412 | 28329 ft | 487 kts | 201° |
| 2026-04-24 16:33 | 51.05467 | 20.18751 | 28628 ft | 490 kts | 201° |
| 2026-04-24 16:33 | 51.02205 | 20.17078 | 28925 ft | 493 kts | 201° |
| 2026-04-24 16:33 | 50.98929 | 20.15399 | 29234 ft | 496 kts | 201° |
| 2026-04-24 16:34 | 50.95640 | 20.13715 | 29535 ft | 498 kts | 201° |
| 2026-04-24 16:34 | 50.92339 | 20.12028 | 29807 ft | 501 kts | 201° |
| 2026-04-24 16:34 | 50.89013 | 20.10337 | 30063 ft | 503 kts | 201° |
| 2026-04-24 16:34 | 50.85663 | 20.08647 | 30302 ft | 506 kts | 201° |
| 2026-04-24 16:35 | 50.82313 | 20.06962 | 30593 ft | 506 kts | 201° |
| 2026-04-24 16:35 | 50.78998 | 20.05294 | 30925 ft | 505 kts | 200° |
| 2026-04-24 16:35 | 50.75655 | 20.03602 | 31233 ft | 505 kts | 201° |
| 2026-04-24 16:35 | 50.72298 | 20.01899 | 31553 ft | 505 kts | 201° |
| 2026-04-24 16:36 | 50.68951 | 20.00200 | 31868 ft | 505 kts | 200° |
| 2026-04-24 16:36 | 50.65603 | 19.98502 | 32162 ft | 505 kts | 200° |
| 2026-04-24 16:36 | 50.62255 | 19.96808 | 32425 ft | 506 kts | 200° |
| 2026-04-24 16:36 | 50.58906 | 19.95116 | 32724 ft | 505 kts | 200° |
| 2026-04-24 16:37 | 50.55559 | 19.93430 | 33042 ft | 505 kts | 200° |
| 2026-04-24 16:37 | 50.53345 | 19.92316 | 33243 ft | 505 kts | 200° |
| 2026-04-24 16:37 | 50.50003 | 19.90637 | 33497 ft | 505 kts | 200° |
| 2026-04-24 16:37 | 50.45523 | 19.88389 | 33865 ft | 505 kts | 200° |
| 2026-04-24 16:38 | 50.43301 | 19.87277 | 34060 ft | 505 kts | 200° |
| 2026-04-24 16:38 | 50.39964 | 19.85607 | 34339 ft | 504 kts | 200° |
| 2026-04-24 16:38 | 50.36622 | 19.83938 | 34595 ft | 503 kts | 200° |
| 2026-04-24 16:38 | 50.33772 | 19.82517 | 34835 ft | 502 kts | 200° |
| 2026-04-24 16:39 | 50.30440 | 19.80857 | 35101 ft | 501 kts | 200° |
| 2026-04-24 16:39 | 50.27128 | 19.79210 | 35360 ft | 500 kts | 199° |
| 2026-04-24 16:39 | 50.23813 | 19.77563 | 35590 ft | 499 kts | 199° |
| 2026-04-24 16:39 | 50.20508 | 19.75923 | 35835 ft | 498 kts | 199° |
| 2026-04-24 16:40 | 50.17205 | 19.74287 | 36103 ft | 497 kts | 199° |
| 2026-04-24 16:40 | 50.13923 | 19.72664 | 36390 ft | 494 kts | 199° |
| 2026-04-24 16:40 | 50.10655 | 19.71051 | 36691 ft | 491 kts | 199° |
| 2026-04-24 16:40 | 50.07399 | 19.69445 | 36972 ft | 489 kts | 199° |
| 2026-04-24 16:41 | 50.00871 | 19.66231 | 37020 ft | 493 kts | 199° |
| 2026-04-24 16:41 | 49.94385 | 19.63049 | 37007 ft | 490 kts | 199° |
| 2026-04-24 16:42 | 49.87906 | 19.59879 | 36995 ft | 486 kts | 199° |
| 2026-04-24 16:42 | 49.81469 | 19.56738 | 37004 ft | 483 kts | 199° |
| 2026-04-24 16:43 | 49.75064 | 19.53620 | 37010 ft | 482 kts | 199° |
| 2026-04-24 16:43 | 49.68620 | 19.50490 | 37026 ft | 489 kts | 198° |
| 2026-04-24 16:44 | 49.62013 | 19.47799 | 37025 ft | 493 kts | 187° |
| 2026-04-24 16:44 | 49.55207 | 19.47793 | 37018 ft | 492 kts | 171° |
| 2026-04-24 16:45 | 49.48404 | 19.49178 | 37028 ft | 494 kts | 170° |
| 2026-04-24 16:45 | 49.41580 | 19.50571 | 37023 ft | 495 kts | 171° |
| 2026-04-24 16:46 | 49.34761 | 19.51877 | 37013 ft | 491 kts | 171° |
| 2026-04-24 16:46 | 49.28024 | 19.53127 | 37010 ft | 484 kts | 171° |
| 2026-04-24 16:47 | 49.21341 | 19.54364 | 37019 ft | 483 kts | 170° |
| 2026-04-24 16:47 | 49.14693 | 19.55597 | 37014 ft | 483 kts | 170° |
| 2026-04-24 16:48 | 49.08014 | 19.56833 | 37022 ft | 484 kts | 170° |
| 2026-04-24 16:48 | 49.01328 | 19.58067 | 37009 ft | 485 kts | 170° |
| 2026-04-24 16:49 | 48.94595 | 19.59306 | 37023 ft | 487 kts | 170° |
| 2026-04-24 16:49 | 48.87898 | 19.60535 | 37014 ft | 488 kts | 170° |
| 2026-04-24 16:50 | 48.81140 | 19.61772 | 37014 ft | 490 kts | 170° |
| 2026-04-24 16:50 | 48.74350 | 19.62924 | 36983 ft | 491 kts | 172° |
| 2026-04-24 16:51 | 48.67512 | 19.63666 | 36993 ft | 491 kts | 174° |
| 2026-04-24 16:51 | 48.60698 | 19.64331 | 36979 ft | 489 kts | 173° |
| 2026-04-24 16:52 | 48.53923 | 19.65046 | 36991 ft | 487 kts | 173° |
| 2026-04-24 16:52 | 48.47207 | 19.65789 | 36976 ft | 485 kts | 173° |
| 2026-04-24 16:53 | 48.40482 | 19.66537 | 36974 ft | 482 kts | 173° |
| 2026-04-24 16:53 | 48.33799 | 19.67277 | 36973 ft | 480 kts | 173° |
| 2026-04-24 16:54 | 48.27160 | 19.68008 | 36975 ft | 477 kts | 173° |
| 2026-04-24 16:54 | 48.20532 | 19.68735 | 36972 ft | 476 kts | 173° |
| 2026-04-24 16:55 | 48.13940 | 19.69457 | 36978 ft | 475 kts | 173° |
| 2026-04-24 16:55 | 48.07391 | 19.70173 | 36974 ft | 475 kts | 173° |
| 2026-04-24 16:56 | 48.00804 | 19.70891 | 36980 ft | 475 kts | 173° |
| 2026-04-24 16:56 | 47.94198 | 19.71609 | 36972 ft | 476 kts | 174° |
| 2026-04-24 16:57 | 47.87582 | 19.72326 | 36984 ft | 477 kts | 174° |
| 2026-04-24 16:57 | 47.80963 | 19.73192 | 36967 ft | 476 kts | 170° |
| 2026-04-24 16:58 | 47.74448 | 19.74641 | 36979 ft | 476 kts | 168° |
| 2026-04-24 16:58 | 47.67883 | 19.76208 | 36970 ft | 477 kts | 169° |
| 2026-04-24 16:59 | 47.61327 | 19.77728 | 36974 ft | 477 kts | 169° |
| 2026-04-24 17:00 | 47.51510 | 19.79936 | 36972 ft | 477 kts | 169° |
| 2026-04-24 17:00 | 47.41674 | 19.82128 | 36976 ft | 476 kts | 169° |
| 2026-04-24 17:01 | 47.31850 | 19.84313 | 36982 ft | 475 kts | 170° |
| 2026-04-24 17:02 | 47.22042 | 19.86486 | 36972 ft | 474 kts | 170° |
| 2026-04-24 17:02 | 47.15516 | 19.87928 | 36973 ft | 474 kts | 170° |
| 2026-04-24 17:03 | 47.05747 | 19.90080 | 36988 ft | 473 kts | 170° |
| 2026-04-24 17:04 | 46.99234 | 19.91510 | 36992 ft | 473 kts | 170° |
| 2026-04-24 17:04 | 46.89510 | 19.93639 | 36994 ft | 472 kts | 171° |
| 2026-04-24 17:05 | 46.83021 | 19.95055 | 36987 ft | 472 kts | 171° |
| 2026-04-24 17:06 | 46.73267 | 19.97177 | 36991 ft | 471 kts | 171° |
| 2026-04-24 17:06 | 46.63570 | 19.99279 | 36994 ft | 471 kts | 171° |
| 2026-04-24 17:07 | 46.57084 | 20.00682 | 36987 ft | 471 kts | 171° |
| 2026-04-24 17:08 | 46.44130 | 20.03471 | 36988 ft | 470 kts | 171° |
| 2026-04-24 17:08 | 46.37652 | 20.04861 | 36996 ft | 470 kts | 171° |
| 2026-04-24 17:09 | 46.24719 | 20.07627 | 37000 ft | 469 kts | 171° |
| 2026-04-24 17:10 | 46.11972 | 20.11349 | 37020 ft | 466 kts | 159° |
| 2026-04-24 17:12 | 45.87483 | 20.23404 | 36996 ft | 466 kts | 159° |